KCDC/CDC METAR and TAF weather

Enter ICAO airport designator
Station Type Date Time Source
KCDC METAR 2019/06/26 17:53 UTC NOAA

KCDC 261753Z AUTO 17016G30KT 10SM CLR 26/M03 A3009 RMK AO2 PK WND 24030/1748 SLP115 T02561028 10256 20133 52002


Station Type Date Time Source
KCDC Decoded METAR 2019/06/26 17:53 UTC NOAA

CEDAR CITY MUN AIRPORT, UT, United States (KCDC) 37-42N 113-06W 1714M
Jun 26, 2019 - 01:53 PM EDT / 2019.06.26 1753 UTC
Wind: from the S (170 degrees) at 18 MPH (16 KT) gusting to 35 MPH (30 KT):0
Visibility: 10 mile(s):0
Sky conditions: clear
Temperature: 78.1 F (25.6 C)
Dew Point: 27.0 F (-2.8 C)
Relative Humidity: 15%
Pressure (altimeter): 30.09 in. Hg (1018 hPa)
Pressure tendency: 0.01 inches (0.2 hPa) higher than three hours ago
ob: KCDC 261753Z AUTO 17016G30KT 10SM CLR 26/M03 A3009 RMK AO2 PK WND 24030/1748 SLP115 T02561028 10256 20133 52002
cycle: 18

Station Type Date Time Source
KCDC TAF 2019/06/26 18:45 UTC NOAA

TAF KCDC 261742Z 2618/2718 21020G30KT P6SM SKC
FM270300 19012G18KT P6SM SKC
FM270800 18008KT P6SM SKC WS012/20035KT
FM271400 19025G35KT P6SM SKC

Example: see airport list